sensor_id;sensor_type;location;lat;lon;timestamp;P1;durP1;ratioP1;P2;durP2;ratioP2
24743;SDS011;12844;52.110;5.548;2023-02-12T00:00:40;3.50;;;2.92;;
24743;SDS011;12844;52.110;5.548;2023-02-12T00:03:06;2.45;;;2.15;;
24743;SDS011;12844;52.110;5.548;2023-02-12T00:05:32;2.83;;;2.53;;
24743;SDS011;12844;52.110;5.548;2023-02-12T00:07:58;3.42;;;2.67;;
24743;SDS011;12844;52.110;5.548;2023-02-12T00:10:23;3.55;;;2.60;;
24743;SDS011;12844;52.110;5.548;2023-02-12T00:12:49;3.30;;;2.80;;
24743;SDS011;12844;52.110;5.548;2023-02-12T00:15:17;3.22;;;2.90;;
24743;SDS011;12844;52.110;5.548;2023-02-12T00:17:42;4.13;;;2.70;;
24743;SDS011;12844;52.110;5.548;2023-02-12T00:20:08;3.10;;;2.67;;
24743;SDS011;12844;52.110;5.548;2023-02-12T00:22:34;3.42;;;2.90;;
24743;SDS011;12844;52.110;5.548;2023-02-12T00:24:59;3.42;;;2.55;;
24743;SDS011;12844;52.110;5.548;2023-02-12T00:27:25;4.07;;;2.78;;
24743;SDS011;12844;52.110;5.548;2023-02-12T00:29:50;4.47;;;2.72;;
24743;SDS011;12844;52.110;5.548;2023-02-12T00:32:16;3.50;;;2.85;;
24743;SDS011;12844;52.110;5.548;2023-02-12T00:34:47;3.20;;;2.83;;
24743;SDS011;12844;52.110;5.548;2023-02-12T00:37:13;3.40;;;2.75;;
24743;SDS011;12844;52.110;5.548;2023-02-12T00:39:39;3.53;;;2.60;;
24743;SDS011;12844;52.110;5.548;2023-02-12T00:42:04;2.80;;;2.50;;
24743;SDS011;12844;52.110;5.548;2023-02-12T00:44:30;2.90;;;2.60;;
24743;SDS011;12844;52.110;5.548;2023-02-12T00:46:56;4.20;;;2.95;;
24743;SDS011;12844;52.110;5.548;2023-02-12T00:49:22;2.95;;;2.60;;
24743;SDS011;12844;52.110;5.548;2023-02-12T00:51:48;3.25;;;2.70;;
24743;SDS011;12844;52.110;5.548;2023-02-12T00:54:13;3.17;;;2.75;;
24743;SDS011;12844;52.110;5.548;2023-02-12T00:56:39;3.17;;;2.80;;
24743;SDS011;12844;52.110;5.548;2023-02-12T00:59:05;3.17;;;2.70;;
24743;SDS011;12844;52.110;5.548;2023-02-12T01:01:31;3.67;;;2.72;;
24743;SDS011;12844;52.110;5.548;2023-02-12T01:03:57;3.55;;;2.78;;
24743;SDS011;12844;52.110;5.548;2023-02-12T01:06:22;3.60;;;2.60;;
24743;SDS011;12844;52.110;5.548;2023-02-12T01:08:51;2.90;;;2.60;;
24743;SDS011;12844;52.110;5.548;2023-02-12T01:11:17;3.58;;;3.00;;
24743;SDS011;12844;52.110;5.548;2023-02-12T01:13:43;3.17;;;2.80;;
24743;SDS011;12844;52.110;5.548;2023-02-12T01:16:16;4.13;;;3.00;;
24743;SDS011;12844;52.110;5.548;2023-02-12T01:18:43;4.25;;;3.03;;
24743;SDS011;12844;52.110;5.548;2023-02-12T01:21:10;3.22;;;2.83;;
24743;SDS011;12844;52.110;5.548;2023-02-12T01:23:38;3.97;;;3.05;;
24743;SDS011;12844;52.110;5.548;2023-02-12T01:26:04;4.28;;;3.60;;
24743;SDS011;12844;52.110;5.548;2023-02-12T01:28:31;3.13;;;2.65;;
24743;SDS011;12844;52.110;5.548;2023-02-12T01:30:57;3.90;;;2.92;;
24743;SDS011;12844;52.110;5.548;2023-02-12T01:33:22;3.97;;;2.88;;
24743;SDS011;12844;52.110;5.548;2023-02-12T01:35:48;3.70;;;3.20;;
24743;SDS011;12844;52.110;5.548;2023-02-12T01:38:13;3.60;;;2.90;;
24743;SDS011;12844;52.110;5.548;2023-02-12T01:40:39;3.63;;;2.97;;
24743;SDS011;12844;52.110;5.548;2023-02-12T01:43:05;3.15;;;2.85;;
24743;SDS011;12844;52.110;5.548;2023-02-12T01:48:00;4.13;;;3.20;;
24743;SDS011;12844;52.110;5.548;2023-02-12T01:50:26;4.03;;;3.10;;
24743;SDS011;12844;52.110;5.548;2023-02-12T01:52:53;3.65;;;3.30;;
24743;SDS011;12844;52.110;5.548;2023-02-12T01:55:21;4.53;;;3.20;;
24743;SDS011;12844;52.110;5.548;2023-02-12T01:57:47;4.00;;;3.17;;
24743;SDS011;12844;52.110;5.548;2023-02-12T02:00:14;3.70;;;3.08;;
24743;SDS011;12844;52.110;5.548;2023-02-12T02:02:44;3.70;;;3.30;;
24743;SDS011;12844;52.110;5.548;2023-02-12T02:05:13;4.03;;;3.17;;
24743;SDS011;12844;52.110;5.548;2023-02-12T02:07:44;3.88;;;3.03;;
24743;SDS011;12844;52.110;5.548;2023-02-12T02:10:10;4.65;;;3.22;;
24743;SDS011;12844;52.110;5.548;2023-02-12T02:12:36;4.13;;;3.13;;
24743;SDS011;12844;52.110;5.548;2023-02-12T02:15:21;4.50;;;3.20;;
24743;SDS011;12844;52.110;5.548;2023-02-12T02:28:56;3.38;;;3.03;;
24743;SDS011;12844;52.110;5.548;2023-02-12T02:31:42;4.40;;;3.28;;
24743;SDS011;12844;52.110;5.548;2023-02-12T02:34:20;4.32;;;3.10;;
24743;SDS011;12844;52.110;5.548;2023-02-12T02:36:56;4.05;;;3.30;;
24743;SDS011;12844;52.110;5.548;2023-02-12T02:42:16;3.75;;;3.30;;
24743;SDS011;12844;52.110;5.548;2023-02-12T02:44:49;3.63;;;2.90;;
24743;SDS011;12844;52.110;5.548;2023-02-12T02:47:54;4.13;;;3.38;;
24743;SDS011;12844;52.110;5.548;2023-02-12T02:50:22;3.17;;;2.88;;
24743;SDS011;12844;52.110;5.548;2023-02-12T02:52:59;4.15;;;3.30;;
24743;SDS011;12844;52.110;5.548;2023-02-12T02:55:28;4.32;;;3.50;;
24743;SDS011;12844;52.110;5.548;2023-02-12T02:58:08;3.88;;;3.25;;
24743;SDS011;12844;52.110;5.548;2023-02-12T03:00:57;4.22;;;3.47;;
24743;SDS011;12844;52.110;5.548;2023-02-12T03:03:52;3.75;;;3.28;;
24743;SDS011;12844;52.110;5.548;2023-02-12T03:06:36;4.25;;;3.45;;
24743;SDS011;12844;52.110;5.548;2023-02-12T03:09:12;4.78;;;3.67;;
24743;SDS011;12844;52.110;5.548;2023-02-12T03:11:48;4.78;;;3.83;;
24743;SDS011;12844;52.110;5.548;2023-02-12T03:14:21;5.35;;;3.83;;
24743;SDS011;12844;52.110;5.548;2023-02-12T03:16:57;4.60;;;3.42;;
24743;SDS011;12844;52.110;5.548;2023-02-12T03:19:31;4.95;;;3.85;;
24743;SDS011;12844;52.110;5.548;2023-02-12T03:22:07;4.63;;;3.83;;
24743;SDS011;12844;52.110;5.548;2023-02-12T03:24:47;4.38;;;3.67;;
24743;SDS011;12844;52.110;5.548;2023-02-12T03:27:40;5.68;;;3.80;;
24743;SDS011;12844;52.110;5.548;2023-02-12T03:30:06;8.55;;;5.18;;
24743;SDS011;12844;52.110;5.548;2023-02-12T03:32:34;6.55;;;4.43;;
24743;SDS011;12844;52.110;5.548;2023-02-12T03:35:31;5.75;;;4.15;;
24743;SDS011;12844;52.110;5.548;2023-02-12T03:40:41;6.18;;;4.18;;
24743;SDS011;12844;52.110;5.548;2023-02-12T03:51:43;5.85;;;4.07;;
24743;SDS011;12844;52.110;5.548;2023-02-12T03:54:09;6.22;;;4.07;;
24743;SDS011;12844;52.110;5.548;2023-02-12T03:59:03;5.35;;;3.95;;
24743;SDS011;12844;52.110;5.548;2023-02-12T04:01:30;6.07;;;4.30;;
24743;SDS011;12844;52.110;5.548;2023-02-12T04:03:57;6.18;;;4.03;;
24743;SDS011;12844;52.110;5.548;2023-02-12T04:06:25;6.97;;;4.75;;
24743;SDS011;12844;52.110;5.548;2023-02-12T04:08:52;6.47;;;4.60;;
24743;SDS011;12844;52.110;5.548;2023-02-12T04:11:37;6.72;;;4.70;;
24743;SDS011;12844;52.110;5.548;2023-02-12T04:17:21;7.50;;;4.75;;
24743;SDS011;12844;52.110;5.548;2023-02-12T04:25:55;5.63;;;4.20;;
24743;SDS011;12844;52.110;5.548;2023-02-12T04:34:14;6.15;;;4.50;;
24743;SDS011;12844;52.110;5.548;2023-02-12T04:36:55;7.40;;;5.07;;
24743;SDS011;12844;52.110;5.548;2023-02-12T04:39:39;7.90;;;4.90;;
24743;SDS011;12844;52.110;5.548;2023-02-12T04:42:06;6.68;;;4.80;;
24743;SDS011;12844;52.110;5.548;2023-02-12T04:44:33;7.22;;;4.97;;
24743;SDS011;12844;52.110;5.548;2023-02-12T04:47:01;6.57;;;4.80;;
24743;SDS011;12844;52.110;5.548;2023-02-12T04:49:27;6.97;;;5.25;;
24743;SDS011;12844;52.110;5.548;2023-02-12T04:51:53;7.13;;;4.68;;
24743;SDS011;12844;52.110;5.548;2023-02-12T04:54:20;7.80;;;4.63;;
24743;SDS011;12844;52.110;5.548;2023-02-12T04:56:47;7.65;;;4.93;;
24743;SDS011;12844;52.110;5.548;2023-02-12T04:59:13;7.20;;;4.90;;
24743;SDS011;12844;52.110;5.548;2023-02-12T05:01:39;7.38;;;5.00;;
24743;SDS011;12844;52.110;5.548;2023-02-12T05:04:06;7.57;;;5.10;;
24743;SDS011;12844;52.110;5.548;2023-02-12T05:06:36;8.40;;;5.47;;
24743;SDS011;12844;52.110;5.548;2023-02-12T05:09:02;9.30;;;5.38;;
24743;SDS011;12844;52.110;5.548;2023-02-12T05:11:29;7.97;;;5.30;;
24743;SDS011;12844;52.110;5.548;2023-02-12T05:13:55;7.30;;;5.10;;
24743;SDS011;12844;52.110;5.548;2023-02-12T05:16:21;6.35;;;5.15;;
24743;SDS011;12844;52.110;5.548;2023-02-12T05:18:46;6.57;;;4.72;;
24743;SDS011;12844;52.110;5.548;2023-02-12T05:21:13;7.03;;;4.85;;
24743;SDS011;12844;52.110;5.548;2023-02-12T05:23:38;7.18;;;4.65;;
24743;SDS011;12844;52.110;5.548;2023-02-12T05:26:06;6.15;;;4.50;;
24743;SDS011;12844;52.110;5.548;2023-02-12T05:28:36;6.63;;;4.70;;
24743;SDS011;12844;52.110;5.548;2023-02-12T05:31:02;6.95;;;4.90;;
24743;SDS011;12844;52.110;5.548;2023-02-12T05:33:29;6.88;;;4.90;;
24743;SDS011;12844;52.110;5.548;2023-02-12T05:35:55;6.55;;;5.13;;
24743;SDS011;12844;52.110;5.548;2023-02-12T05:38:26;6.88;;;4.78;;
24743;SDS011;12844;52.110;5.548;2023-02-12T05:40:51;6.25;;;5.00;;
24743;SDS011;12844;52.110;5.548;2023-02-12T05:43:17;7.43;;;5.25;;
24743;SDS011;12844;52.110;5.548;2023-02-12T05:45:42;5.43;;;4.32;;
24743;SDS011;12844;52.110;5.548;2023-02-12T05:48:08;6.93;;;4.80;;
24743;SDS011;12844;52.110;5.548;2023-02-12T05:50:34;6.60;;;4.57;;
24743;SDS011;12844;52.110;5.548;2023-02-12T05:53:00;6.32;;;4.95;;
24743;SDS011;12844;52.110;5.548;2023-02-12T05:55:26;6.40;;;4.82;;
24743;SDS011;12844;52.110;5.548;2023-02-12T05:57:52;6.57;;;5.05;;
24743;SDS011;12844;52.110;5.548;2023-02-12T06:00:18;6.72;;;5.20;;
24743;SDS011;12844;52.110;5.548;2023-02-12T06:02:44;7.95;;;5.45;;
24743;SDS011;12844;52.110;5.548;2023-02-12T06:05:09;7.03;;;4.88;;
24743;SDS011;12844;52.110;5.548;2023-02-12T06:07:35;6.82;;;5.00;;
24743;SDS011;12844;52.110;5.548;2023-02-12T06:10:00;7.15;;;5.20;;
24743;SDS011;12844;52.110;5.548;2023-02-12T06:12:26;6.28;;;4.88;;
24743;SDS011;12844;52.110;5.548;2023-02-12T06:14:52;7.53;;;5.18;;
24743;SDS011;12844;52.110;5.548;2023-02-12T06:17:17;7.95;;;5.00;;
24743;SDS011;12844;52.110;5.548;2023-02-12T06:19:43;7.57;;;5.32;;
24743;SDS011;12844;52.110;5.548;2023-02-12T06:22:08;6.65;;;4.80;;
24743;SDS011;12844;52.110;5.548;2023-02-12T06:24:34;6.43;;;4.90;;
24743;SDS011;12844;52.110;5.548;2023-02-12T06:27:01;7.35;;;5.40;;
24743;SDS011;12844;52.110;5.548;2023-02-12T06:29:26;7.00;;;5.28;;
24743;SDS011;12844;52.110;5.548;2023-02-12T06:31:52;7.35;;;5.30;;
24743;SDS011;12844;52.110;5.548;2023-02-12T06:34:17;6.70;;;5.18;;
24743;SDS011;12844;52.110;5.548;2023-02-12T06:36:43;6.60;;;4.75;;
24743;SDS011;12844;52.110;5.548;2023-02-12T06:39:11;7.30;;;5.13;;
24743;SDS011;12844;52.110;5.548;2023-02-12T06:41:38;6.45;;;5.07;;
24743;SDS011;12844;52.110;5.548;2023-02-12T06:44:04;6.20;;;5.03;;
24743;SDS011;12844;52.110;5.548;2023-02-12T06:46:30;5.88;;;4.68;;
24743;SDS011;12844;52.110;5.548;2023-02-12T06:48:57;6.88;;;4.80;;
24743;SDS011;12844;52.110;5.548;2023-02-12T06:51:24;6.85;;;5.13;;
24743;SDS011;12844;52.110;5.548;2023-02-12T06:53:51;6.78;;;4.97;;
24743;SDS011;12844;52.110;5.548;2023-02-12T06:56:18;6.60;;;5.03;;
24743;SDS011;12844;52.110;5.548;2023-02-12T06:58:45;6.57;;;5.03;;
24743;SDS011;12844;52.110;5.548;2023-02-12T07:03:49;6.50;;;5.40;;
24743;SDS011;12844;52.110;5.548;2023-02-12T07:06:20;7.50;;;5.55;;
24743;SDS011;12844;52.110;5.548;2023-02-12T07:08:46;6.72;;;5.22;;
24743;SDS011;12844;52.110;5.548;2023-02-12T07:11:12;6.80;;;5.03;;
24743;SDS011;12844;52.110;5.548;2023-02-12T07:13:39;7.07;;;5.20;;
24743;SDS011;12844;52.110;5.548;2023-02-12T07:16:06;6.10;;;4.57;;
24743;SDS011;12844;52.110;5.548;2023-02-12T07:18:33;6.95;;;5.20;;
24743;SDS011;12844;52.110;5.548;2023-02-12T07:21:00;7.32;;;5.65;;
24743;SDS011;12844;52.110;5.548;2023-02-12T07:23:26;7.38;;;5.30;;
24743;SDS011;12844;52.110;5.548;2023-02-12T07:25:57;5.80;;;4.78;;
24743;SDS011;12844;52.110;5.548;2023-02-12T07:28:24;6.72;;;5.13;;
24743;SDS011;12844;52.110;5.548;2023-02-12T07:30:51;6.18;;;5.10;;
24743;SDS011;12844;52.110;5.548;2023-02-12T07:33:17;7.80;;;5.35;;
24743;SDS011;12844;52.110;5.548;2023-02-12T07:35:42;7.28;;;5.28;;
24743;SDS011;12844;52.110;5.548;2023-02-12T07:38:08;6.28;;;5.20;;
24743;SDS011;12844;52.110;5.548;2023-02-12T07:40:34;7.00;;;5.20;;
24743;SDS011;12844;52.110;5.548;2023-02-12T07:43:00;7.35;;;5.60;;
24743;SDS011;12844;52.110;5.548;2023-02-12T07:45:26;6.50;;;5.22;;
24743;SDS011;12844;52.110;5.548;2023-02-12T07:47:52;6.60;;;5.20;;
24743;SDS011;12844;52.110;5.548;2023-02-12T07:50:17;7.18;;;5.28;;
24743;SDS011;12844;52.110;5.548;2023-02-12T07:52:43;7.47;;;5.40;;
24743;SDS011;12844;52.110;5.548;2023-02-12T07:55:09;6.32;;;5.05;;
24743;SDS011;12844;52.110;5.548;2023-02-12T07:57:35;6.75;;;5.28;;
24743;SDS011;12844;52.110;5.548;2023-02-12T08:00:00;6.25;;;5.05;;
24743;SDS011;12844;52.110;5.548;2023-02-12T08:02:28;6.18;;;4.65;;
24743;SDS011;12844;52.110;5.548;2023-02-12T08:04:54;6.85;;;5.00;;
24743;SDS011;12844;52.110;5.548;2023-02-12T08:07:20;5.75;;;4.47;;
24743;SDS011;12844;52.110;5.548;2023-02-12T08:09:46;6.75;;;5.05;;
24743;SDS011;12844;52.110;5.548;2023-02-12T08:12:11;6.15;;;4.90;;
24743;SDS011;12844;52.110;5.548;2023-02-12T08:14:37;7.10;;;4.97;;
24743;SDS011;12844;52.110;5.548;2023-02-12T08:17:02;6.30;;;5.00;;
24743;SDS011;12844;52.110;5.548;2023-02-12T08:19:28;6.20;;;4.75;;
24743;SDS011;12844;52.110;5.548;2023-02-12T08:21:54;5.38;;;4.60;;
24743;SDS011;12844;52.110;5.548;2023-02-12T08:24:20;7.05;;;5.22;;
24743;SDS011;12844;52.110;5.548;2023-02-12T08:26:47;6.57;;;5.25;;
24743;SDS011;12844;52.110;5.548;2023-02-12T08:29:13;6.30;;;5.03;;
24743;SDS011;12844;52.110;5.548;2023-02-12T08:31:42;7.15;;;5.68;;
24743;SDS011;12844;52.110;5.548;2023-02-12T08:34:17;5.80;;;4.85;;
24743;SDS011;12844;52.110;5.548;2023-02-12T08:36:44;7.13;;;4.97;;
24743;SDS011;12844;52.110;5.548;2023-02-12T08:39:11;7.13;;;5.30;;
24743;SDS011;12844;52.110;5.548;2023-02-12T08:41:37;6.97;;;4.90;;
24743;SDS011;12844;52.110;5.548;2023-02-12T08:44:03;6.53;;;5.38;;
24743;SDS011;12844;52.110;5.548;2023-02-12T08:46:30;5.80;;;4.88;;
24743;SDS011;12844;52.110;5.548;2023-02-12T08:48:58;7.22;;;5.20;;
24743;SDS011;12844;52.110;5.548;2023-02-12T08:51:27;6.40;;;4.95;;
24743;SDS011;12844;52.110;5.548;2023-02-12T08:53:56;6.55;;;5.30;;
24743;SDS011;12844;52.110;5.548;2023-02-12T08:56:23;6.13;;;5.07;;
24743;SDS011;12844;52.110;5.548;2023-02-12T08:58:50;5.40;;;4.40;;
24743;SDS011;12844;52.110;5.548;2023-02-12T09:01:17;6.20;;;5.07;;
24743;SDS011;12844;52.110;5.548;2023-02-12T09:03:48;5.90;;;4.82;;
24743;SDS011;12844;52.110;5.548;2023-02-12T09:06:14;5.75;;;4.78;;
24743;SDS011;12844;52.110;5.548;2023-02-12T09:08:41;5.22;;;4.28;;
24743;SDS011;12844;52.110;5.548;2023-02-12T09:11:09;6.03;;;4.82;;
24743;SDS011;12844;52.110;5.548;2023-02-12T09:13:43;7.68;;;5.40;;
24743;SDS011;12844;52.110;5.548;2023-02-12T09:16:10;6.45;;;5.13;;
24743;SDS011;12844;52.110;5.548;2023-02-12T09:18:36;6.40;;;5.22;;
24743;SDS011;12844;52.110;5.548;2023-02-12T09:21:08;6.13;;;4.80;;
24743;SDS011;12844;52.110;5.548;2023-02-12T09:23:38;6.40;;;4.80;;
24743;SDS011;12844;52.110;5.548;2023-02-12T09:26:05;5.68;;;4.72;;
24743;SDS011;12844;52.110;5.548;2023-02-12T09:28:35;6.53;;;4.75;;
24743;SDS011;12844;52.110;5.548;2023-02-12T09:31:08;6.18;;;4.78;;
24743;SDS011;12844;52.110;5.548;2023-02-12T09:33:38;5.90;;;4.70;;
24743;SDS011;12844;52.110;5.548;2023-02-12T09:36:07;6.80;;;4.97;;
24743;SDS011;12844;52.110;5.548;2023-02-12T09:38:34;6.72;;;4.80;;
24743;SDS011;12844;52.110;5.548;2023-02-12T09:41:17;5.57;;;4.85;;
24743;SDS011;12844;52.110;5.548;2023-02-12T09:52:21;6.95;;;5.15;;
24743;SDS011;12844;52.110;5.548;2023-02-12T09:54:50;6.35;;;4.95;;
24743;SDS011;12844;52.110;5.548;2023-02-12T09:57:35;5.63;;;4.68;;
24743;SDS011;12844;52.110;5.548;2023-02-12T10:02:30;5.22;;;4.35;;
24743;SDS011;12844;52.110;5.548;2023-02-12T10:04:58;5.53;;;4.97;;
24743;SDS011;12844;52.110;5.548;2023-02-12T10:07:34;6.35;;;4.90;;
24743;SDS011;12844;52.110;5.548;2023-02-12T10:10:09;6.18;;;4.78;;
24743;SDS011;12844;52.110;5.548;2023-02-12T10:12:49;5.90;;;4.90;;
24743;SDS011;12844;52.110;5.548;2023-02-12T10:15:23;5.82;;;4.70;;
24743;SDS011;12844;52.110;5.548;2023-02-12T10:21:05;6.82;;;5.20;;
24743;SDS011;12844;52.110;5.548;2023-02-12T10:23:57;5.75;;;4.55;;
24743;SDS011;12844;52.110;5.548;2023-02-12T10:29:08;5.65;;;4.70;;
24743;SDS011;12844;52.110;5.548;2023-02-12T10:31:39;6.30;;;4.57;;
24743;SDS011;12844;52.110;5.548;2023-02-12T10:34:15;5.32;;;4.55;;
24743;SDS011;12844;52.110;5.548;2023-02-12T10:36:49;5.53;;;4.55;;
24743;SDS011;12844;52.110;5.548;2023-02-12T10:39:31;5.28;;;4.75;;
24743;SDS011;12844;52.110;5.548;2023-02-12T10:44:40;7.43;;;4.97;;
24743;SDS011;12844;52.110;5.548;2023-02-12T10:47:05;5.32;;;4.68;;
24743;SDS011;12844;52.110;5.548;2023-02-12T10:49:35;6.45;;;5.20;;
24743;SDS011;12844;52.110;5.548;2023-02-12T10:57:12;6.10;;;4.72;;
24743;SDS011;12844;52.110;5.548;2023-02-12T10:59:44;5.22;;;4.63;;
24743;SDS011;12844;52.110;5.548;2023-02-12T11:04:47;5.78;;;4.65;;
24743;SDS011;12844;52.110;5.548;2023-02-12T11:07:13;6.20;;;5.22;;
24743;SDS011;12844;52.110;5.548;2023-02-12T11:09:40;5.18;;;4.43;;
24743;SDS011;12844;52.110;5.548;2023-02-12T11:17:38;5.88;;;4.80;;
24743;SDS011;12844;52.110;5.548;2023-02-12T11:22:47;5.72;;;4.72;;
24743;SDS011;12844;52.110;5.548;2023-02-12T11:25:25;5.07;;;4.47;;
24743;SDS011;12844;52.110;5.548;2023-02-12T11:28:03;4.88;;;4.40;;
24743;SDS011;12844;52.110;5.548;2023-02-12T11:30:36;5.82;;;4.70;;
24743;SDS011;12844;52.110;5.548;2023-02-12T11:33:35;5.63;;;4.75;;
24743;SDS011;12844;52.110;5.548;2023-02-12T11:38:34;5.35;;;4.63;;
24743;SDS011;12844;52.110;5.548;2023-02-12T11:41:04;6.35;;;4.90;;
24743;SDS011;12844;52.110;5.548;2023-02-12T11:44:46;5.97;;;5.07;;
24743;SDS011;12844;52.110;5.548;2023-02-12T11:46:55;5.72;;;5.00;;
24743;SDS011;12844;52.110;5.548;2023-02-12T11:49:29;5.15;;;4.47;;
24743;SDS011;12844;52.110;5.548;2023-02-12T11:51:58;5.53;;;4.63;;
24743;SDS011;12844;52.110;5.548;2023-02-12T11:54:26;5.38;;;4.57;;
24743;SDS011;12844;52.110;5.548;2023-02-12T11:56:54;5.85;;;4.90;;
24743;SDS011;12844;52.110;5.548;2023-02-12T12:01:55;5.63;;;4.85;;
24743;SDS011;12844;52.110;5.548;2023-02-12T12:04:24;5.35;;;4.50;;
24743;SDS011;12844;52.110;5.548;2023-02-12T12:06:55;5.20;;;4.40;;
24743;SDS011;12844;52.110;5.548;2023-02-12T12:14:32;5.45;;;4.85;;
24743;SDS011;12844;52.110;5.548;2023-02-12T12:17:24;5.78;;;4.45;;
24743;SDS011;12844;52.110;5.548;2023-02-12T12:20:21;6.20;;;4.60;;
24743;SDS011;12844;52.110;5.548;2023-02-12T12:22:56;5.38;;;4.40;;
24743;SDS011;12844;52.110;5.548;2023-02-12T12:25:44;5.60;;;4.93;;
24743;SDS011;12844;52.110;5.548;2023-02-12T12:33:32;5.85;;;5.05;;
24743;SDS011;12844;52.110;5.548;2023-02-12T12:44:25;5.03;;;4.47;;
24743;SDS011;12844;52.110;5.548;2023-02-12T12:58:06;5.80;;;5.00;;
24743;SDS011;12844;52.110;5.548;2023-02-12T13:21:13;5.90;;;4.95;;
24743;SDS011;12844;52.110;5.548;2023-02-12T13:23:53;5.00;;;4.43;;
24743;SDS011;12844;52.110;5.548;2023-02-12T13:26:33;5.80;;;5.00;;
24743;SDS011;12844;52.110;5.548;2023-02-12T13:31:55;5.75;;;4.90;;
24743;SDS011;12844;52.110;5.548;2023-02-12T13:34:26;5.60;;;4.70;;
24743;SDS011;12844;52.110;5.548;2023-02-12T13:36:54;5.22;;;4.72;;
24743;SDS011;12844;52.110;5.548;2023-02-12T13:39:26;5.47;;;4.65;;
24743;SDS011;12844;52.110;5.548;2023-02-12T13:42:44;4.90;;;4.40;;
24743;SDS011;12844;52.110;5.548;2023-02-12T13:45:16;5.50;;;4.47;;
24743;SDS011;12844;52.110;5.548;2023-02-12T14:03:33;5.00;;;4.50;;
24743;SDS011;12844;52.110;5.548;2023-02-12T14:06:08;5.80;;;4.70;;
24743;SDS011;12844;52.110;5.548;2023-02-12T14:08:52;6.35;;;4.90;;
24743;SDS011;12844;52.110;5.548;2023-02-12T14:11:45;6.22;;;4.78;;
24743;SDS011;12844;52.110;5.548;2023-02-12T14:14:22;5.25;;;4.45;;
24743;SDS011;12844;52.110;5.548;2023-02-12T14:16:49;5.60;;;4.55;;
24743;SDS011;12844;52.110;5.548;2023-02-12T14:24:53;5.15;;;4.30;;
24743;SDS011;12844;52.110;5.548;2023-02-12T14:51:21;5.68;;;4.60;;
24743;SDS011;12844;52.110;5.548;2023-02-12T14:53:50;5.40;;;4.60;;
24743;SDS011;12844;52.110;5.548;2023-02-12T14:56:19;5.47;;;4.65;;
24743;SDS011;12844;52.110;5.548;2023-02-12T14:58:46;4.78;;;4.07;;
24743;SDS011;12844;52.110;5.548;2023-02-12T15:01:13;4.85;;;4.05;;
24743;SDS011;12844;52.110;5.548;2023-02-12T15:03:40;5.63;;;4.57;;
24743;SDS011;12844;52.110;5.548;2023-02-12T15:06:54;5.63;;;4.47;;
24743;SDS011;12844;52.110;5.548;2023-02-12T15:09:09;4.88;;;4.32;;
24743;SDS011;12844;52.110;5.548;2023-02-12T15:11:54;4.70;;;3.97;;
24743;SDS011;12844;52.110;5.548;2023-02-12T15:14:32;5.63;;;4.65;;
24743;SDS011;12844;52.110;5.548;2023-02-12T15:17:10;4.93;;;4.40;;
24743;SDS011;12844;52.110;5.548;2023-02-12T15:19:49;5.20;;;4.70;;
24743;SDS011;12844;52.110;5.548;2023-02-12T15:22:40;5.40;;;4.65;;
24743;SDS011;12844;52.110;5.548;2023-02-12T15:27:59;5.80;;;4.70;;
24743;SDS011;12844;52.110;5.548;2023-02-12T15:30:30;4.97;;;4.30;;
24743;SDS011;12844;52.110;5.548;2023-02-12T15:32:58;5.18;;;4.60;;
24743;SDS011;12844;52.110;5.548;2023-02-12T15:35:28;4.72;;;4.13;;
24743;SDS011;12844;52.110;5.548;2023-02-12T15:37:56;5.10;;;4.25;;
24743;SDS011;12844;52.110;5.548;2023-02-12T15:40:26;5.13;;;4.40;;
24743;SDS011;12844;52.110;5.548;2023-02-12T15:42:55;5.30;;;4.65;;
24743;SDS011;12844;52.110;5.548;2023-02-12T15:45:24;5.05;;;4.45;;
24743;SDS011;12844;52.110;5.548;2023-02-12T15:50:53;4.70;;;4.15;;
24743;SDS011;12844;52.110;5.548;2023-02-12T15:53:24;4.75;;;4.10;;
24743;SDS011;12844;52.110;5.548;2023-02-12T15:55:52;4.85;;;3.92;;
24743;SDS011;12844;52.110;5.548;2023-02-12T15:58:29;5.72;;;4.75;;
24743;SDS011;12844;52.110;5.548;2023-02-12T16:01:02;4.72;;;4.05;;
24743;SDS011;12844;52.110;5.548;2023-02-12T16:03:31;5.93;;;4.43;;
24743;SDS011;12844;52.110;5.548;2023-02-12T16:06:07;4.63;;;3.60;;
24743;SDS011;12844;52.110;5.548;2023-02-12T16:08:46;5.07;;;4.07;;
24743;SDS011;12844;52.110;5.548;2023-02-12T16:11:38;5.43;;;4.30;;
24743;SDS011;12844;52.110;5.548;2023-02-12T16:14:15;5.70;;;4.60;;
24743;SDS011;12844;52.110;5.548;2023-02-12T16:16:47;5.13;;;4.25;;
24743;SDS011;12844;52.110;5.548;2023-02-12T16:19:19;5.03;;;3.97;;
24743;SDS011;12844;52.110;5.548;2023-02-12T16:22:29;5.78;;;4.50;;
24743;SDS011;12844;52.110;5.548;2023-02-12T16:24:45;4.80;;;4.20;;
24743;SDS011;12844;52.110;5.548;2023-02-12T16:27:17;5.03;;;4.18;;
24743;SDS011;12844;52.110;5.548;2023-02-12T16:35:02;5.05;;;4.28;;
24743;SDS011;12844;52.110;5.548;2023-02-12T16:37:49;5.20;;;4.20;;
24743;SDS011;12844;52.110;5.548;2023-02-12T16:47:51;4.60;;;4.10;;
24743;SDS011;12844;52.110;5.548;2023-02-12T16:50:23;5.05;;;4.28;;
24743;SDS011;12844;52.110;5.548;2023-02-12T16:52:58;5.50;;;4.50;;
24743;SDS011;12844;52.110;5.548;2023-02-12T16:55:29;4.90;;;4.18;;
24743;SDS011;12844;52.110;5.548;2023-02-12T16:57:55;5.30;;;4.40;;
24743;SDS011;12844;52.110;5.548;2023-02-12T17:00:21;5.25;;;4.22;;
24743;SDS011;12844;52.110;5.548;2023-02-12T17:02:47;4.85;;;4.28;;
24743;SDS011;12844;52.110;5.548;2023-02-12T17:05:14;4.45;;;3.92;;
24743;SDS011;12844;52.110;5.548;2023-02-12T17:07:41;5.38;;;4.10;;
24743;SDS011;12844;52.110;5.548;2023-02-12T17:10:11;4.47;;;3.72;;
24743;SDS011;12844;52.110;5.548;2023-02-12T17:12:50;4.20;;;3.80;;
24743;SDS011;12844;52.110;5.548;2023-02-12T17:15:18;4.82;;;4.18;;
24743;SDS011;12844;52.110;5.548;2023-02-12T17:17:48;4.78;;;3.88;;
24743;SDS011;12844;52.110;5.548;2023-02-12T17:20:14;4.57;;;3.80;;
24743;SDS011;12844;52.110;5.548;2023-02-12T17:22:42;5.18;;;3.97;;
24743;SDS011;12844;52.110;5.548;2023-02-12T17:25:12;4.35;;;3.70;;
24743;SDS011;12844;52.110;5.548;2023-02-12T17:27:38;4.70;;;3.88;;
24743;SDS011;12844;52.110;5.548;2023-02-12T17:30:04;5.03;;;4.25;;
24743;SDS011;12844;52.110;5.548;2023-02-12T17:32:31;4.88;;;4.20;;
24743;SDS011;12844;52.110;5.548;2023-02-12T17:34:56;5.32;;;4.10;;
24743;SDS011;12844;52.110;5.548;2023-02-12T17:37:22;5.40;;;4.07;;
24743;SDS011;12844;52.110;5.548;2023-02-12T17:39:49;4.97;;;4.18;;
24743;SDS011;12844;52.110;5.548;2023-02-12T17:42:15;4.72;;;3.88;;
24743;SDS011;12844;52.110;5.548;2023-02-12T17:44:40;4.93;;;3.92;;
24743;SDS011;12844;52.110;5.548;2023-02-12T17:47:06;4.68;;;4.05;;
24743;SDS011;12844;52.110;5.548;2023-02-12T17:49:31;4.68;;;3.78;;
24743;SDS011;12844;52.110;5.548;2023-02-12T17:51:59;5.00;;;4.18;;
24743;SDS011;12844;52.110;5.548;2023-02-12T17:54:25;4.35;;;3.60;;
24743;SDS011;12844;52.110;5.548;2023-02-12T17:56:51;5.15;;;4.20;;
24743;SDS011;12844;52.110;5.548;2023-02-12T17:59:16;4.93;;;4.00;;
24743;SDS011;12844;52.110;5.548;2023-02-12T18:01:42;4.88;;;4.03;;
24743;SDS011;12844;52.110;5.548;2023-02-12T18:04:08;4.85;;;3.90;;
24743;SDS011;12844;52.110;5.548;2023-02-12T18:06:33;4.95;;;4.20;;
24743;SDS011;12844;52.110;5.548;2023-02-12T18:08:59;5.55;;;4.20;;
24743;SDS011;12844;52.110;5.548;2023-02-12T18:11:26;4.53;;;3.92;;
24743;SDS011;12844;52.110;5.548;2023-02-12T18:13:52;4.47;;;4.00;;
24743;SDS011;12844;52.110;5.548;2023-02-12T18:16:19;4.28;;;3.78;;
24743;SDS011;12844;52.110;5.548;2023-02-12T18:18:45;5.05;;;4.05;;
24743;SDS011;12844;52.110;5.548;2023-02-12T18:21:12;5.50;;;3.97;;
24743;SDS011;12844;52.110;5.548;2023-02-12T18:23:39;5.45;;;4.28;;
24743;SDS011;12844;52.110;5.548;2023-02-12T18:26:15;5.30;;;3.90;;
24743;SDS011;12844;52.110;5.548;2023-02-12T18:28:42;5.13;;;4.30;;
24743;SDS011;12844;52.110;5.548;2023-02-12T18:31:08;4.90;;;4.05;;